Time,TemperatureF,DewpointF,PressureIn,WindDirection,WindDirectionDegrees,WindSpeedMPH,WindSpeedGustMPH,Humidity,HourlyPrecipIn,Conditions,Clouds,dailyrainin,SoftwareType,DateUTC
2013-07-26 00:00:00,62.0,52.5,30.08,West,262,0.0,0.0,71,0.00,CLR,,0.00,WeatherDisplay:10.37,2013-07-26 07:00:00,
2013-07-26 00:05:00,61.7,52.6,30.08,West,263,0.0,0.0,72,0.00,CLR,,0.00,WeatherDisplay:10.37,2013-07-26 07:05:00,
2013-07-26 00:10:00,61.4,53.0,30.08,West,263,0.0,0.0,74,0.00,CLR,,0.00,WeatherDisplay:10.37,2013-07-26 07:10:00,
2013-07-26 00:20:00,60.9,52.6,30.08,West,263,0.0,0.0,74,0.00,CLR,,0.00,WeatherDisplay:10.37,2013-07-26 07:20:00,
2013-07-26 00:30:00,60.2,52.3,30.08,West,263,0.0,0.0,75,0.00,CLR,,0.00,WeatherDisplay:10.37,2013-07-26 07:30:00,
2013-07-26 00:40:00,59.9,52.3,30.08,West,261,0.0,0.0,76,0.00,CLR,,0.00,WeatherDisplay:10.37,2013-07-26 07:40:00,
2013-07-26 00:50:00,59.8,52.2,30.08,West,259,0.0,0.0,76,0.00,CLR,,0.00,WeatherDisplay:10.37,2013-07-26 07:50:00,
2013-07-26 01:00:00,59.6,52.0,30.08,West,260,0.0,0.0,76,0.00,CLR,,0.00,WeatherDisplay:10.37,2013-07-26 08:00:00,
2013-07-26 01:05:00,59.3,51.8,30.08,West,260,0.0,0.0,76,0.00,CLR,,0.00,WeatherDisplay:10.37,2013-07-26 08:05:00,
2013-07-26 01:10:00,59.1,52.6,30.08,West,260,0.0,0.0,79,0.00,CLR,,0.00,WeatherDisplay:10.37,2013-07-26 08:10:00,
2013-07-26 01:20:00,58.7,52.2,30.09,West,260,0.0,0.0,79,0.00,CLR,,0.00,WeatherDisplay:10.37,2013-07-26 08:20:00,
2013-07-26 01:30:00,58.3,52.5,30.09,West,260,0.0,0.0,81,0.00,CLR,,0.00,WeatherDisplay:10.37,2013-07-26 08:30:00,
2013-07-26 01:40:00,57.6,51.8,30.09,West,260,0.0,0.0,81,0.00,CLR,,0.00,WeatherDisplay:10.37,2013-07-26 08:40:00,
2013-07-26 01:50:00,57.2,52.7,30.09,West,260,0.0,0.0,85,0.00,CLR,,0.00,WeatherDisplay:10.37,2013-07-26 08:50:00,
2013-07-26 02:00:00,56.9,52.7,30.10,West,260,0.0,0.0,86,0.00,CLR,,0.00,WeatherDisplay:10.37,2013-07-26 09:00:00,
2013-07-26 02:05:00,56.8,53.0,30.10,West,260,0.0,0.0,87,0.00,CLR,,0.00,WeatherDisplay:10.37,2013-07-26 09:05:00,
2013-07-26 02:10:00,56.7,52.6,30.10,West,260,0.0,0.0,86,0.00,CLR,,0.00,WeatherDisplay:10.37,2013-07-26 09:10:00,
2013-07-26 02:20:00,56.0,52.2,30.10,West,260,0.0,0.0,87,0.00,CLR,,0.00,WeatherDisplay:10.37,2013-07-26 09:20:00,
2013-07-26 02:30:00,55.7,52.2,30.10,West,260,0.0,0.0,88,0.00,CLR,,0.00,WeatherDisplay:10.37,2013-07-26 09:30:00,
2013-07-26 02:40:00,55.7,51.6,30.10,West,260,0.0,0.0,86,0.00,CLR,,0.00,WeatherDisplay:10.37,2013-07-26 09:40:00,
2013-07-26 02:50:00,55.4,51.3,30.10,West,268,0.0,0.0,86,0.00,CLR,,0.00,WeatherDisplay:10.37,2013-07-26 09:50:00,
2013-07-26 03:00:00,55.0,51.2,30.10,West,279,0.0,0.0,87,0.00,CLR,,0.00,WeatherDisplay:10.37,2013-07-26 10:00:00,
2013-07-26 03:05:00,54.7,51.5,30.10,WNW,298,0.0,0.0,89,0.00,CLR,,0.00,WeatherDisplay:10.37,2013-07-26 10:05:00,
2013-07-26 03:10:00,54.6,51.4,30.10,ENE,61,0.0,0.0,89,0.00,CLR,,0.00,WeatherDisplay:10.37,2013-07-26 10:10:00,
2013-07-26 03:20:00,54.2,51.0,30.10,ENE,71,0.0,0.0,89,0.00,CLR,,0.00,WeatherDisplay:10.37,2013-07-26 10:20:00,
2013-07-26 03:30:00,53.9,51.3,30.10,ENE,71,0.0,0.0,91,0.00,CLR,,0.00,WeatherDisplay:10.37,2013-07-26 10:30:00,
2013-07-26 03:40:00,53.7,51.1,30.11,ENE,73,0.0,0.0,91,0.00,CLR,,0.00,WeatherDisplay:10.37,2013-07-26 10:40:00,
2013-07-26 03:50:00,53.2,50.6,30.11,ENE,72,0.0,0.0,91,0.00,CLR,,0.00,WeatherDisplay:10.37,2013-07-26 10:50:00,
2013-07-26 04:00:00,52.7,50.2,30.11,ENE,72,0.0,0.0,91,0.00,CLR,,0.00,WeatherDisplay:10.37,2013-07-26 11:00:00,
2013-07-26 04:10:00,52.2,49.7,30.11,ENE,72,0.0,0.0,91,0.00,CLR,,0.00,WeatherDisplay:10.37,2013-07-26 11:10:00,
2013-07-26 04:20:00,51.7,49.4,30.11,ENE,73,0.0,0.0,92,0.00,CLR,,0.00,WeatherDisplay:10.37,2013-07-26 11:20:00,
2013-07-26 04:30:00,51.3,49.3,30.12,ENE,73,0.0,0.0,93,0.00,CLR,,0.00,WeatherDisplay:10.37,2013-07-26 11:30:00,
2013-07-26 04:40:00,51.0,49.3,30.12,ENE,73,0.0,0.0,94,0.00,CLR,,0.00,WeatherDisplay:10.37,2013-07-26 11:40:00,
2013-07-26 04:50:00,51.0,49.6,30.12,ENE,73,0.0,0.0,95,0.00,CLR,,0.00,WeatherDisplay:10.37,2013-07-26 11:50:00,
2013-07-26 05:00:00,51.1,49.4,30.12,ENE,73,0.0,0.0,94,0.00,CLR,,0.00,WeatherDisplay:10.37,2013-07-26 12:00:00,
2013-07-26 05:05:00,51.0,49.3,30.12,ENE,73,0.0,0.0,94,0.00,CLR,,0.00,WeatherDisplay:10.37,2013-07-26 12:05:00,
2013-07-26 05:10:00,50.8,49.1,30.12,ENE,73,0.0,0.0,94,0.00,CLR,,0.00,WeatherDisplay:10.37,2013-07-26 12:10:00,
2013-07-26 05:25:00,50.5,48.8,30.12,ENE,73,0.0,0.0,94,0.00,CLR,,0.00,WeatherDisplay:10.37,2013-07-26 12:25:00,
2013-07-26 05:30:00,50.3,48.9,30.12,ENE,73,0.0,0.0,95,0.00,CLR,,0.00,WeatherDisplay:10.37,2013-07-26 12:30:00,
2013-07-26 05:40:00,50.0,48.6,30.12,ENE,73,0.0,0.0,95,0.00,CLR,,0.00,WeatherDisplay:10.37,2013-07-26 12:40:00,
2013-07-26 05:50:00,50.1,48.7,30.12,ENE,73,0.0,0.0,95,0.00,CLR,,0.00,WeatherDisplay:10.37,2013-07-26 12:50:00,
2013-07-26 06:00:00,49.8,48.4,30.12,ENE,72,0.0,0.0,95,0.00,CLR,,0.00,WeatherDisplay:10.37,2013-07-26 13:00:00,
2013-07-26 06:05:00,49.6,48.2,30.13,ENE,73,0.0,0.0,95,0.00,CLR,,0.00,WeatherDisplay:10.37,2013-07-26 13:05:00,
2013-07-26 06:10:00,49.6,48.2,30.12,ENE,72,0.0,0.0,95,0.00,CLR,,0.00,WeatherDisplay:10.37,2013-07-26 13:10:00,
2013-07-26 06:20:00,49.8,48.4,30.13,ENE,73,0.0,0.0,95,0.00,CLR,,0.00,WeatherDisplay:10.37,2013-07-26 13:20:00,
2013-07-26 06:30:00,50.0,48.6,30.13,ENE,73,0.0,0.0,95,0.00,CLR,,0.00,WeatherDisplay:10.37,2013-07-26 13:30:00,
2013-07-26 06:40:00,50.1,48.4,30.14,ENE,73,0.0,1.0,94,0.00,CLR,,0.00,WeatherDisplay:10.37,2013-07-26 13:40:00,
2013-07-26 06:50:00,50.5,48.5,30.14,ENE,73,0.0,0.0,93,0.00,CLR,,0.00,WeatherDisplay:10.37,2013-07-26 13:50:00,
2013-07-26 07:00:00,51.0,48.8,30.14,ENE,58,0.0,0.0,92,0.00,CLR,,0.00,WeatherDisplay:10.37,2013-07-26 14:00:00,
2013-07-26 07:05:00,51.2,49.0,30.14,NE,55,0.0,0.0,92,0.00,CLR,,0.00,WeatherDisplay:10.37,2013-07-26 14:05:00,
2013-07-26 07:10:00,51.7,49.2,30.14,ENE,58,0.0,0.0,91,0.00,CLR,,0.00,WeatherDisplay:10.37,2013-07-26 14:10:00,
2013-07-26 07:20:00,52.5,49.7,30.14,ENE,65,0.0,0.0,90,0.00,CLR,,0.00,WeatherDisplay:10.37,2013-07-26 14:20:00,
2013-07-26 07:30:00,53.2,50.0,30.14,ENE,68,0.0,0.0,89,0.00,CLR,,0.00,WeatherDisplay:10.37,2013-07-26 14:30:00,
2013-07-26 07:40:00,54.4,50.9,30.14,ENE,66,0.0,0.0,88,0.00,CLR,,0.00,WeatherDisplay:10.37,2013-07-26 14:40:00,
2013-07-26 07:50:00,56.6,52.2,30.14,ENE,65,0.0,0.0,85,0.00,CLR,,0.00,WeatherDisplay:10.37,2013-07-26 14:50:00,
2013-07-26 08:00:00,60.4,53.9,30.15,ENE,65,0.0,0.0,79,0.00,CLR,,0.00,WeatherDisplay:10.37,2013-07-26 15:00:00,
2013-07-26 08:05:00,62.5,54.1,30.15,ENE,65,0.0,0.0,74,0.00,CLR,,0.00,WeatherDisplay:10.37,2013-07-26 15:05:00,
2013-07-26 08:10:00,62.9,54.1,30.15,ENE,65,0.0,0.0,73,0.00,CLR,,0.00,WeatherDisplay:10.37,2013-07-26 15:10:00,
2013-07-26 08:20:00,64.0,54.4,30.15,ENE,67,0.0,0.0,71,0.00,CLR,,0.00,WeatherDisplay:10.37,2013-07-26 15:20:00,
2013-07-26 08:30:00,66.5,55.2,30.15,ENE,66,0.0,0.0,67,0.00,CLR,,0.00,WeatherDisplay:10.37,2013-07-26 15:30:00,
2013-07-26 08:40:00,68.8,55.7,30.15,ENE,65,0.0,0.0,63,0.00,CLR,,0.00,WeatherDisplay:10.37,2013-07-26 15:40:00,
2013-07-26 08:50:00,70.2,55.2,30.15,NE,43,0.0,0.0,59,0.00,CLR,,0.00,WeatherDisplay:10.37,2013-07-26 15:50:00,
2013-07-26 09:00:00,70.7,53.2,30.15,WNW,292,0.0,0.0,54,0.00,CLR,,0.00,WeatherDisplay:10.37,2013-07-26 16:00:00,
2013-07-26 09:10:00,70.6,53.1,30.15,West,266,0.0,0.0,54,0.00,CLR,,0.00,WeatherDisplay:10.37,2013-07-26 16:10:00,
2013-07-26 09:20:00,71.7,54.6,30.15,NNE,27,0.0,0.0,55,0.00,CLR,,0.00,WeatherDisplay:10.37,2013-07-26 16:20:00,
2013-07-26 09:30:00,72.3,54.7,30.15,NE,35,0.0,0.0,54,0.00,CLR,,0.00,WeatherDisplay:10.37,2013-07-26 16:30:00,
2013-07-26 09:40:00,72.8,55.2,30.15,NNW,341,0.0,0.0,54,0.00,CLR,,0.00,WeatherDisplay:10.37,2013-07-26 16:40:00,
2013-07-26 09:50:00,73.6,55.4,30.15,NNE,24,0.0,0.0,53,0.00,CLR,,0.00,WeatherDisplay:10.37,2013-07-26 16:50:00,
2013-07-26 10:00:00,73.3,55.2,30.15,WNW,298,0.0,0.0,53,0.00,CLR,,0.00,WeatherDisplay:10.37,2013-07-26 17:00:00,
2013-07-26 10:05:00,73.7,55.0,30.14,NW,325,0.0,0.0,52,0.00,CLR,,0.00,WeatherDisplay:10.37,2013-07-26 17:05:00,
2013-07-26 10:10:00,73.9,54.6,30.14,NNE,13,0.0,0.0,51,0.00,CLR,,0.00,WeatherDisplay:10.37,2013-07-26 17:10:00,
2013-07-26 10:20:00,73.5,55.9,30.14,NE,55,0.0,0.0,54,0.00,CLR,,0.00,WeatherDisplay:10.37,2013-07-26 17:20:00,
2013-07-26 10:30:00,73.6,55.4,30.14,WSW,252,0.0,0.0,53,0.00,CLR,,0.00,WeatherDisplay:10.37,2013-07-26 17:30:00,
2013-07-26 10:40:00,73.9,56.2,30.14,ENE,59,0.0,0.0,54,0.00,CLR,,0.00,WeatherDisplay:10.37,2013-07-26 17:40:00,
2013-07-26 10:50:00,74.8,56.0,30.14,WNW,293,0.0,0.0,52,0.00,CLR,,0.00,WeatherDisplay:10.37,2013-07-26 17:50:00,
2013-07-26 11:00:00,76.0,55.5,30.13,WNW,285,0.0,0.0,49,0.00,CLR,,0.00,WeatherDisplay:10.37,2013-07-26 18:00:00,
2013-07-26 11:05:00,76.4,56.4,30.13,West,277,0.0,0.0,50,0.00,CLR,,0.00,WeatherDisplay:10.37,2013-07-26 18:05:00,
2013-07-26 11:10:00,75.7,55.7,30.13,WNW,292,0.0,0.0,50,0.00,CLR,,0.00,WeatherDisplay:10.37,2013-07-26 18:10:00,
2013-07-26 11:20:00,76.2,55.7,30.13,West,265,0.0,0.0,49,0.00,CLR,,0.00,WeatherDisplay:10.37,2013-07-26 18:20:00,
2013-07-26 11:30:00,77.1,57.0,30.13,WNW,290,1.0,4.0,50,0.00,CLR,,0.00,WeatherDisplay:10.37,2013-07-26 18:30:00,
2013-07-26 11:40:00,78.1,57.4,30.12,SW,225,1.0,2.0,49,0.00,CLR,,0.00,WeatherDisplay:10.37,2013-07-26 18:40:00,
2013-07-26 11:50:00,77.9,56.6,30.12,South,184,1.0,3.0,48,0.00,CLR,,0.00,WeatherDisplay:10.37,2013-07-26 18:50:00,
2013-07-26 12:00:00,78.1,58.0,30.12,ENE,68,0.0,3.0,50,0.00,CLR,,0.00,WeatherDisplay:10.37,2013-07-26 19:00:00,
2013-07-26 12:05:00,79.0,57.7,30.12,ENE,72,1.0,3.0,48,0.00,CLR,,0.00,WeatherDisplay:10.37,2013-07-26 19:05:00,
2013-07-26 12:10:00,79.4,57.4,30.12,NE,53,0.0,3.0,47,0.00,CLR,,0.00,WeatherDisplay:10.37,2013-07-26 19:10:00,
2013-07-26 12:20:00,78.9,58.1,30.12,NW,324,1.0,6.0,49,0.00,CLR,,0.00,WeatherDisplay:10.37,2013-07-26 19:20:00,
2013-07-26 12:25:00,78.6,57.8,30.12,West,272,0.0,5.0,49,0.00,CLR,,0.00,WeatherDisplay:10.37,2013-07-26 19:25:00,
2013-07-26 12:30:00,78.9,57.5,30.12,WSW,252,1.0,3.0,48,0.00,CLR,,0.00,WeatherDisplay:10.37,2013-07-26 19:30:00,
2013-07-26 12:40:00,79.2,56.6,30.12,NE,47,1.0,4.0,46,0.00,CLR,,0.00,WeatherDisplay:10.37,2013-07-26 19:40:00,
2013-07-26 12:50:00,79.8,57.2,30.11,ENE,63,2.0,6.0,46,0.00,CLR,,0.00,WeatherDisplay:10.37,2013-07-26 19:50:00,
2013-07-26 13:00:00,80.7,56.1,30.11,SW,226,1.0,3.0,43,0.00,CLR,,0.00,WeatherDisplay:10.37,2013-07-26 20:00:00,
2013-07-26 13:05:00,81.1,55.9,30.11,West,260,1.0,3.0,42,0.00,CLR,,0.00,WeatherDisplay:10.37,2013-07-26 20:05:00,
2013-07-26 13:10:00,81.0,55.7,30.11,WSW,249,1.0,4.0,42,0.00,CLR,,0.00,WeatherDisplay:10.37,2013-07-26 20:10:00,
2013-07-26 13:20:00,81.6,56.3,30.11,NE,39,3.0,5.0,42,0.00,CLR,,0.00,WeatherDisplay:10.37,2013-07-26 20:20:00,
2013-07-26 13:30:00,81.7,57.7,30.10,NE,47,0.0,3.0,44,0.00,CLR,,0.00,WeatherDisplay:10.37,2013-07-26 20:30:00,
2013-07-26 13:40:00,81.7,56.4,30.10,West,269,1.0,3.0,42,0.00,CLR,,0.00,WeatherDisplay:10.37,2013-07-26 20:40:00,
2013-07-26 13:50:00,81.4,54.8,30.10,WSW,255,1.0,2.0,40,0.00,CLR,,0.00,WeatherDisplay:10.37,2013-07-26 20:50:00,
2013-07-26 14:00:00,82.6,57.8,30.10,NNE,32,1.0,4.0,43,0.00,CLR,,0.00,WeatherDisplay:10.37,2013-07-26 21:00:00,
2013-07-26 14:05:00,82.1,56.1,30.10,WNW,287,0.0,6.0,41,0.00,CLR,,0.00,WeatherDisplay:10.37,2013-07-26 21:05:00,
2013-07-26 14:10:00,82.3,56.2,30.10,WNW,299,1.0,3.0,41,0.00,CLR,,0.00,WeatherDisplay:10.37,2013-07-26 21:10:00,
2013-07-26 14:20:00,82.6,54.4,30.10,WSW,252,1.0,4.0,38,0.00,CLR,,0.00,WeatherDisplay:10.37,2013-07-26 21:20:00,
2013-07-26 14:30:00,83.6,54.6,30.10,East,90,2.0,4.0,37,0.00,CLR,,0.00,WeatherDisplay:10.37,2013-07-26 21:30:00,
2013-07-26 14:40:00,84.1,55.8,30.10,ENE,73,2.0,4.0,38,0.00,CLR,,0.00,WeatherDisplay:10.37,2013-07-26 21:40:00,
2013-07-26 14:50:00,84.5,53.8,30.10,NNE,31,1.0,3.0,35,0.00,CLR,,0.00,WeatherDisplay:10.37,2013-07-26 21:50:00,
2013-07-26 15:00:00,85.0,53.5,30.09,ENE,57,0.0,3.0,34,0.00,CLR,,0.00,WeatherDisplay:10.37,2013-07-26 22:00:00,
2013-07-26 15:05:00,84.6,54.0,30.09,West,277,1.0,4.0,35,0.00,CLR,,0.00,WeatherDisplay:10.37,2013-07-26 22:05:00,
2013-07-26 15:10:00,84.7,54.0,30.09,West,276,1.0,3.0,35,0.00,CLR,,0.00,WeatherDisplay:10.37,2013-07-26 22:10:00,
2013-07-26 15:20:00,85.2,52.0,30.09,NNE,27,1.0,4.0,32,0.00,CLR,,0.00,WeatherDisplay:10.37,2013-07-26 22:20:00,
2013-07-26 15:30:00,84.5,52.2,30.09,West,275,1.0,4.0,33,0.00,CLR,,0.00,WeatherDisplay:10.37,2013-07-26 22:30:00,
2013-07-26 15:40:00,85.1,53.6,30.09,West,278,1.0,1.0,34,0.00,CLR,,0.00,WeatherDisplay:10.37,2013-07-26 22:40:00,
2013-07-26 15:50:00,84.8,51.7,30.09,West,267,0.0,2.0,32,0.00,CLR,,0.00,WeatherDisplay:10.37,2013-07-26 22:50:00,
2013-07-26 16:00:00,84.3,52.1,30.08,SW,225,2.0,4.0,33,0.00,CLR,,0.00,WeatherDisplay:10.37,2013-07-26 23:00:00,
2013-07-26 16:05:00,83.9,51.7,30.08,WSW,241,0.0,3.0,33,0.00,CLR,,0.00,WeatherDisplay:10.37,2013-07-26 23:05:00,
2013-07-26 16:10:00,83.8,50.8,30.08,WSW,241,1.0,2.0,32,0.00,CLR,,0.00,WeatherDisplay:10.37,2013-07-26 23:10:00,
2013-07-26 16:20:00,82.9,51.7,30.08,SW,231,1.0,4.0,34,0.00,CLR,,0.00,WeatherDisplay:10.37,2013-07-26 23:20:00,
2013-07-26 16:30:00,83.1,53.4,30.08,WSW,254,1.0,4.0,36,0.00,CLR,,0.00,WeatherDisplay:10.37,2013-07-26 23:30:00,
2013-07-26 16:40:00,82.7,53.0,30.08,West,260,1.0,3.0,36,0.00,CLR,,0.00,WeatherDisplay:10.37,2013-07-26 23:40:00,
2013-07-26 16:50:00,82.6,52.1,30.08,West,265,2.0,3.0,35,0.00,CLR,,0.00,WeatherDisplay:10.37,2013-07-26 23:50:00,
2013-07-26 17:00:00,82.7,53.0,30.07,SSE,166,2.0,4.0,36,0.00,CLR,,0.00,WeatherDisplay:10.37,2013-07-27 00:00:00,
2013-07-26 17:10:00,82.7,52.3,30.07,WSW,256,1.0,4.0,35,0.00,CLR,,0.00,WeatherDisplay:10.37,2013-07-27 00:10:00,
2013-07-26 17:20:00,82.5,50.5,30.07,WSW,253,1.0,5.0,33,0.00,CLR,,0.00,WeatherDisplay:10.37,2013-07-27 00:20:00,
2013-07-26 17:30:00,82.4,51.2,30.07,West,262,0.0,4.0,34,0.00,CLR,,0.00,WeatherDisplay:10.37,2013-07-27 00:30:00,
2013-07-26 17:40:00,82.3,51.9,30.07,WSW,257,0.0,4.0,35,0.00,CLR,,0.00,WeatherDisplay:10.37,2013-07-27 00:40:00,
2013-07-26 17:50:00,82.1,50.1,30.07,WSW,253,1.0,4.0,33,0.00,CLR,,0.00,WeatherDisplay:10.37,2013-07-27 00:50:00,
2013-07-26 18:00:00,81.6,48.0,30.06,WSW,258,1.0,4.0,31,0.00,CLR,,0.00,WeatherDisplay:10.37,2013-07-27 01:00:00,
2013-07-26 18:05:00,81.5,47.9,30.06,WSW,244,1.0,3.0,31,0.00,CLR,,0.00,WeatherDisplay:10.37,2013-07-27 01:05:00,
2013-07-26 18:10:00,81.4,48.7,30.06,WSW,254,1.0,3.0,32,0.00,CLR,,0.00,WeatherDisplay:10.37,2013-07-27 01:10:00,
2013-07-26 18:20:00,81.2,47.7,30.06,West,262,1.0,4.0,31,0.00,CLR,,0.00,WeatherDisplay:10.37,2013-07-27 01:20:00,
2013-07-26 18:30:00,80.7,49.7,30.06,WSW,248,1.0,4.0,34,0.00,CLR,,0.00,WeatherDisplay:10.37,2013-07-27 01:30:00,
2013-07-26 18:40:00,80.3,51.7,30.06,WSW,253,1.0,4.0,37,0.00,CLR,,0.00,WeatherDisplay:10.37,2013-07-27 01:40:00,
2013-07-26 18:50:00,80.1,52.2,30.06,WSW,245,2.0,3.0,38,0.00,CLR,,0.00,WeatherDisplay:10.37,2013-07-27 01:50:00,
2013-07-26 19:00:00,79.6,50.3,30.06,West,269,1.0,5.0,36,0.00,CLR,,0.00,WeatherDisplay:10.37,2013-07-27 02:00:00,
2013-07-26 19:05:00,79.2,51.4,30.06,West,263,1.0,3.0,38,0.00,CLR,,0.00,WeatherDisplay:10.37,2013-07-27 02:05:00,
2013-07-26 19:10:00,78.7,46.4,30.06,SW,236,1.0,5.0,32,0.00,CLR,,0.00,WeatherDisplay:10.37,2013-07-27 02:10:00,
2013-07-26 19:20:00,78.0,48.8,30.06,WSW,247,1.0,2.0,36,0.00,CLR,,0.00,WeatherDisplay:10.37,2013-07-27 02:20:00,
2013-07-26 19:30:00,76.6,48.4,30.06,WSW,252,1.0,3.0,37,0.00,CLR,,0.00,WeatherDisplay:10.37,2013-07-27 02:30:00,
2013-07-26 19:40:00,75.8,48.4,30.06,WSW,245,1.0,4.0,38,0.00,CLR,,0.00,WeatherDisplay:10.37,2013-07-27 02:40:00,
2013-07-26 19:50:00,75.0,46.2,30.06,WSW,247,0.0,2.0,36,0.00,CLR,,0.00,WeatherDisplay:10.37,2013-07-27 02:50:00,
2013-07-26 20:00:00,74.5,46.5,30.07,WSW,238,0.0,2.0,37,0.00,CLR,,0.00,WeatherDisplay:10.37,2013-07-27 03:00:00,
2013-07-26 20:05:00,73.9,45.3,30.07,WSW,249,1.0,1.0,36,0.00,CLR,,0.00,WeatherDisplay:10.37,2013-07-27 03:05:00,
2013-07-26 20:10:00,73.7,45.1,30.07,WSW,249,1.0,3.0,36,0.00,CLR,,0.00,WeatherDisplay:10.37,2013-07-27 03:10:00,
2013-07-26 20:20:00,73.0,43.7,30.07,West,262,1.0,2.0,35,0.00,CLR,,0.00,WeatherDisplay:10.37,2013-07-27 03:20:00,
2013-07-26 20:30:00,72.6,46.2,30.07,WSW,258,0.0,1.0,39,0.00,CLR,,0.00,WeatherDisplay:10.37,2013-07-27 03:30:00,
2013-07-26 20:40:00,71.6,47.3,30.07,West,259,0.0,2.0,42,0.00,CLR,,0.00,WeatherDisplay:10.37,2013-07-27 03:40:00,
2013-07-26 20:50:00,71.1,47.5,30.08,WSW,250,0.0,3.0,43,0.00,CLR,,0.00,WeatherDisplay:10.37,2013-07-27 03:50:00,
2013-07-26 21:00:00,70.7,48.3,30.08,WSW,257,1.0,2.0,45,0.00,CLR,,0.00,WeatherDisplay:10.37,2013-07-27 04:00:00,
2013-07-26 21:05:00,70.4,48.7,30.09,West,261,1.0,2.0,46,0.00,CLR,,0.00,WeatherDisplay:10.37,2013-07-27 04:05:00,
2013-07-26 21:10:00,70.2,47.9,30.09,WSW,258,1.0,3.0,45,0.00,CLR,,0.00,WeatherDisplay:10.37,2013-07-27 04:10:00,
2013-07-26 21:20:00,69.8,48.7,30.10,West,260,0.0,2.0,47,0.00,CLR,,0.00,WeatherDisplay:10.37,2013-07-27 04:20:00,
2013-07-26 21:30:00,68.9,48.9,30.10,West,259,0.0,1.0,49,0.00,CLR,,0.00,WeatherDisplay:10.37,2013-07-27 04:30:00,
2013-07-26 21:35:00,68.4,48.5,30.10,West,262,0.0,0.0,49,0.00,CLR,,0.00,WeatherDisplay:10.37,2013-07-27 04:35:00,
2013-07-26 21:40:00,68.0,48.6,30.11,West,263,0.0,0.0,50,0.00,CLR,,0.00,WeatherDisplay:10.37,2013-07-27 04:40:00,
2013-07-26 21:50:00,67.0,48.8,30.11,West,262,0.0,0.0,52,0.00,CLR,,0.00,WeatherDisplay:10.37,2013-07-27 04:50:00,
2013-07-26 22:00:00,66.2,49.0,30.11,West,262,0.0,0.0,54,0.00,CLR,,0.00,WeatherDisplay:10.37,2013-07-27 05:00:00,
2013-07-26 22:05:00,65.8,48.2,30.12,West,262,0.0,0.0,53,0.00,CLR,,0.00,WeatherDisplay:10.37,2013-07-27 05:05:00,
2013-07-26 22:10:00,65.5,48.4,30.12,West,273,0.0,0.0,54,0.00,CLR,,0.00,WeatherDisplay:10.37,2013-07-27 05:10:00,
2013-07-26 22:20:00,64.9,48.8,30.12,WNW,288,0.0,0.0,56,0.00,CLR,,0.00,WeatherDisplay:10.37,2013-07-27 05:20:00,
2013-07-26 22:30:00,64.9,48.8,30.12,WSW,246,0.0,0.0,56,0.00,CLR,,0.00,WeatherDisplay:10.37,2013-07-27 05:30:00,
2013-07-26 22:40:00,64.6,49.0,30.12,WSW,251,0.0,0.0,57,0.00,CLR,,0.00,WeatherDisplay:10.37,2013-07-27 05:40:00,
2013-07-26 22:45:00,64.6,49.0,30.12,WSW,253,0.0,0.0,57,0.00,CLR,,0.00,WeatherDisplay:10.37,2013-07-27 05:45:00,
2013-07-26 22:55:00,64.4,49.3,30.12,WSW,257,1.0,4.0,58,0.00,CLR,,0.00,WeatherDisplay:10.37,2013-07-27 05:55:00,
2013-07-26 23:00:00,64.3,49.2,30.12,WSW,254,1.0,2.0,58,0.00,CLR,,0.00,WeatherDisplay:10.37,2013-07-27 06:00:00,
2013-07-26 23:05:00,64.3,49.2,30.12,WSW,248,0.0,2.0,58,0.00,CLR,,0.00,WeatherDisplay:10.37,2013-07-27 06:05:00,
2013-07-26 23:10:00,64.1,49.5,30.12,WSW,244,1.0,1.0,59,0.00,CLR,,0.00,WeatherDisplay:10.37,2013-07-27 06:10:00,
2013-07-26 23:20:00,63.8,49.2,30.12,WSW,244,0.0,1.0,59,0.00,CLR,,0.00,WeatherDisplay:10.37,2013-07-27 06:20:00,
2013-07-26 23:30:00,63.4,48.4,30.12,WSW,245,0.0,0.0,58,0.00,CLR,,0.00,WeatherDisplay:10.37,2013-07-27 06:30:00,
2013-07-26 23:40:00,62.7,48.6,30.12,WSW,246,0.0,0.0,60,0.00,CLR,,0.00,WeatherDisplay:10.37,2013-07-27 06:40:00,
2013-07-26 23:50:00,62.1,48.0,30.13,WSW,246,0.0,0.0,60,0.00,CLR,,0.00,WeatherDisplay:10.37,2013-07-27 06:50:00,